createdAt,value
2023-02-11T00:01:47.825Z,35.37
2023-02-11T00:04:14.415Z,35.37
2023-02-11T00:06:41.036Z,35.44
2023-02-11T00:09:07.785Z,35.35
2023-02-11T00:11:34.661Z,35.43
2023-02-11T00:14:02.302Z,35.57
2023-02-11T00:16:29.788Z,35.50
2023-02-11T00:18:56.384Z,36.19
2023-02-11T00:21:24.149Z,36.62
2023-02-11T00:23:50.870Z,36.99
2023-02-11T00:26:21.040Z,37.02
2023-02-11T00:28:47.851Z,37.28
2023-02-11T00:31:14.873Z,37.19
2023-02-11T00:33:41.630Z,37.27
2023-02-11T00:36:09.533Z,37.29
2023-02-11T00:38:36.339Z,37.40
2023-02-11T00:41:02.923Z,37.31
2023-02-11T00:43:29.525Z,37.38
2023-02-11T00:45:56.168Z,37.25
2023-02-11T00:48:22.822Z,37.15
2023-02-11T00:50:49.798Z,37.52
2023-02-11T00:53:16.562Z,37.57
2023-02-11T00:55:43.162Z,37.62
2023-02-11T00:58:09.794Z,37.55
2023-02-11T01:00:36.662Z,37.47
2023-02-11T01:03:03.286Z,37.52
2023-02-11T01:05:30.935Z,37.39
2023-02-11T01:07:57.996Z,37.29
2023-02-11T01:10:24.664Z,37.14
2023-02-11T01:12:51.205Z,37.16
2023-02-11T01:15:18.294Z,37.14
2023-02-11T01:17:44.894Z,37.03
2023-02-11T01:20:15.491Z,37.08
2023-02-11T01:22:42.163Z,37.16
2023-02-11T01:25:09.110Z,36.86
2023-02-11T01:27:37.242Z,37.06
2023-02-11T01:30:04.174Z,37.02
2023-02-11T01:32:30.719Z,37.17
2023-02-11T01:34:57.287Z,37.06
2023-02-11T01:37:24.063Z,37.39
2023-02-11T01:39:50.736Z,37.33
2023-02-11T01:42:17.881Z,37.33
2023-02-11T01:44:44.566Z,37.31
2023-02-11T01:47:11.196Z,37.27
2023-02-11T01:49:42.746Z,37.48
2023-02-11T01:52:13.598Z,37.60
2023-02-11T01:55:03.364Z,37.48
2023-02-11T01:57:30.695Z,37.54
2023-02-11T02:00:03.457Z,37.65
2023-02-11T02:02:35.122Z,37.56
2023-02-11T02:05:07.192Z,37.42
2023-02-11T02:07:35.184Z,37.65
2023-02-11T02:10:06.768Z,37.39
2023-02-11T02:12:33.314Z,37.40
2023-02-11T02:15:18.358Z,37.56
2023-02-11T02:17:47.137Z,37.20
2023-02-11T02:20:37.840Z,37.42
2023-02-11T02:23:04.385Z,37.34
2023-02-11T02:25:40.117Z,37.28
2023-02-11T02:28:09.569Z,37.15
2023-02-11T02:30:36.256Z,37.29
2023-02-11T02:33:21.625Z,37.20
2023-02-11T02:35:54.845Z,37.46
2023-02-11T02:38:24.026Z,37.52
2023-02-11T02:40:50.688Z,37.36
2023-02-11T02:43:17.499Z,37.43
2023-02-11T02:45:44.197Z,37.50
2023-02-11T02:48:29.616Z,37.65
2023-02-11T02:51:06.930Z,37.64
2023-02-11T02:53:40.116Z,37.65
2023-02-11T02:56:22.563Z,37.88
2023-02-11T02:58:59.731Z,37.74
2023-02-11T03:01:31.175Z,37.71
2023-02-11T03:04:03.764Z,37.89
2023-02-11T03:06:30.659Z,37.59
2023-02-11T03:08:59.030Z,37.49
2023-02-11T03:11:25.705Z,37.55
2023-02-11T03:13:52.400Z,37.45
2023-02-11T03:16:20.022Z,37.44
2023-02-11T03:18:48.688Z,37.56
2023-02-11T03:21:15.435Z,37.28
2023-02-11T03:23:53.197Z,37.30
2023-02-11T03:26:49.342Z,37.45
2023-02-11T03:29:23.738Z,37.23
2023-02-11T03:31:59.196Z,37.40
2023-02-11T03:34:25.824Z,37.33
2023-02-11T03:36:54.724Z,37.34
2023-02-11T03:39:23.630Z,37.31
2023-02-11T03:41:50.223Z,37.46
2023-02-11T03:44:16.802Z,37.40
2023-02-11T03:46:44.653Z,37.29
2023-02-11T03:49:12.190Z,37.24
2023-02-11T03:51:38.879Z,37.23
2023-02-11T03:54:06.546Z,37.24
2023-02-11T03:56:33.659Z,37.32
2023-02-11T03:59:00.227Z,37.28
2023-02-11T04:01:26.901Z,37.50
2023-02-11T04:03:53.484Z,37.53
2023-02-11T04:06:20.030Z,37.54
2023-02-11T04:08:46.769Z,37.30
2023-02-11T04:11:13.391Z,37.35
2023-02-11T04:13:40.036Z,37.31
2023-02-11T04:16:06.719Z,37.34
2023-02-11T04:18:33.330Z,37.23
2023-02-11T04:20:59.942Z,37.22
2023-02-11T04:23:26.686Z,37.46
2023-02-11T04:25:53.432Z,37.37
2023-02-11T04:28:20.145Z,37.49
2023-02-11T04:30:46.837Z,37.40
2023-02-11T04:33:13.423Z,37.34
2023-02-11T04:35:39.965Z,37.51
2023-02-11T04:38:06.668Z,37.52
2023-02-11T04:40:33.256Z,37.53
2023-02-11T04:42:59.870Z,37.34
2023-02-11T04:45:26.534Z,37.43
2023-02-11T04:47:53.100Z,37.42
2023-02-11T04:50:19.746Z,37.44
2023-02-11T04:52:46.349Z,37.51
2023-02-11T04:55:13.082Z,37.36
2023-02-11T04:57:39.759Z,37.44
2023-02-11T05:00:06.812Z,37.45
2023-02-11T05:02:33.412Z,37.33
2023-02-11T05:05:00.046Z,37.55
2023-02-11T05:07:26.805Z,37.61
2023-02-11T05:09:53.356Z,37.73
2023-02-11T05:12:19.919Z,37.77
2023-02-11T05:14:46.606Z,37.67
2023-02-11T05:17:13.275Z,37.71
2023-02-11T05:19:39.877Z,37.72
2023-02-11T05:22:06.498Z,37.93
2023-02-11T05:24:33.132Z,37.91
2023-02-11T05:26:59.960Z,38.04
2023-02-11T05:29:26.629Z,37.98
2023-02-11T05:31:53.453Z,37.94
2023-02-11T05:34:20.008Z,38.14
2023-02-11T05:36:46.765Z,38.03
2023-02-11T05:39:13.333Z,38.18
2023-02-11T05:41:39.968Z,38.29
2023-02-11T05:44:06.782Z,38.52
2023-02-11T05:46:33.380Z,38.64
2023-02-11T05:49:00.018Z,38.68
2023-02-11T05:51:26.963Z,38.67
2023-02-11T05:53:53.663Z,38.65
2023-02-11T05:56:20.394Z,38.88
2023-02-11T05:58:47.053Z,38.79
2023-02-11T06:01:13.763Z,38.87
2023-02-11T06:03:40.387Z,38.80
2023-02-11T06:06:10.223Z,38.71
2023-02-11T06:08:39.128Z,38.84
2023-02-11T06:11:05.931Z,38.94
2023-02-11T06:13:32.620Z,38.99
2023-02-11T06:15:59.469Z,38.95
2023-02-11T06:18:26.265Z,38.93
2023-02-11T06:20:52.944Z,38.96
2023-02-11T06:23:19.521Z,39.07
2023-02-11T06:25:46.143Z,39.20
2023-02-11T06:28:12.847Z,39.07
2023-02-11T06:30:39.424Z,39.12
2023-02-11T06:33:06.042Z,39.47
2023-02-11T06:35:33.762Z,39.47
2023-02-11T06:38:00.320Z,39.49
2023-02-11T06:40:26.894Z,39.59
2023-02-11T06:42:53.522Z,39.60
2023-02-11T06:45:20.716Z,39.55
2023-02-11T06:47:47.259Z,39.41
2023-02-11T06:50:14.208Z,39.37
2023-02-11T06:52:40.979Z,39.38
2023-02-11T06:55:07.704Z,39.57
2023-02-11T06:57:34.352Z,39.53
2023-02-11T07:00:00.947Z,39.54
2023-02-11T07:02:27.533Z,39.53
2023-02-11T07:04:54.194Z,39.40
2023-02-11T07:07:20.982Z,39.59
2023-02-11T07:09:47.616Z,39.69
2023-02-11T07:12:14.246Z,39.44
2023-02-11T07:14:40.834Z,39.78
2023-02-11T07:17:07.453Z,39.44
2023-02-11T07:19:34.216Z,39.48
2023-02-11T07:22:01.006Z,39.61
2023-02-11T07:24:27.713Z,39.86
2023-02-11T07:26:54.456Z,39.83
2023-02-11T07:29:21.515Z,39.82
2023-02-11T07:31:48.236Z,39.97
2023-02-11T07:34:15.007Z,40.06
2023-02-11T07:36:43.797Z,39.85
2023-02-11T07:39:10.467Z,39.91
2023-02-11T07:41:38.110Z,40.11
2023-02-11T07:44:04.877Z,40.17
2023-02-11T07:46:31.821Z,39.92
2023-02-11T07:48:58.651Z,40.05
2023-02-11T07:51:28.666Z,40.24
2023-02-11T07:53:55.706Z,40.18
2023-02-11T07:56:22.579Z,40.01
2023-02-11T07:58:49.313Z,40.00
2023-02-11T08:01:17.970Z,40.08
2023-02-11T08:03:44.815Z,40.16
2023-02-11T08:06:15.204Z,39.92
2023-02-11T08:08:42.058Z,39.99
2023-02-11T08:11:12.906Z,39.66
2023-02-11T08:13:39.496Z,39.39
2023-02-11T08:16:06.266Z,39.18
2023-02-11T08:18:33.053Z,38.83
2023-02-11T08:21:06.686Z,38.44
2023-02-11T08:23:33.485Z,38.33
2023-02-11T08:26:04.114Z,38.19
2023-02-11T08:28:30.765Z,37.93
2023-02-11T08:30:57.505Z,37.97
2023-02-11T08:33:24.113Z,37.89
2023-02-11T08:35:50.694Z,37.50
2023-02-11T08:38:17.421Z,36.98
2023-02-11T08:40:43.970Z,36.97
2023-02-11T08:43:10.608Z,36.80
2023-02-11T08:45:37.791Z,36.74
2023-02-11T08:48:04.559Z,36.85
2023-02-11T08:50:32.565Z,36.35
2023-02-11T08:52:59.274Z,36.66
2023-02-11T08:55:25.821Z,36.44
2023-02-11T08:57:52.586Z,35.84
2023-02-11T09:00:19.904Z,36.03
2023-02-11T09:02:46.478Z,36.64
2023-02-11T09:05:13.098Z,35.96
2023-02-11T09:07:39.870Z,36.21
2023-02-11T09:10:06.590Z,36.03
2023-02-11T09:12:33.241Z,34.77
2023-02-11T09:14:59.950Z,35.52
2023-02-11T09:17:26.627Z,34.64
2023-02-11T09:19:53.273Z,33.30
2023-02-11T09:22:20.019Z,33.42
2023-02-11T09:24:46.684Z,34.33
2023-02-11T09:27:13.242Z,32.81
2023-02-11T09:29:39.948Z,32.62
2023-02-11T09:32:09.661Z,33.41
2023-02-11T09:34:36.621Z,33.45
2023-02-11T09:37:03.361Z,33.77
2023-02-11T09:39:30.029Z,32.75
2023-02-11T09:42:15.694Z,32.28
2023-02-11T09:44:42.309Z,33.51
2023-02-11T09:47:27.856Z,32.58
2023-02-11T09:49:57.566Z,31.51
2023-02-11T09:52:27.308Z,32.35
2023-02-11T09:54:54.593Z,33.04
2023-02-11T09:57:28.648Z,32.82
2023-02-11T09:59:56.415Z,33.29
2023-02-11T10:02:28.957Z,33.11
2023-02-11T10:05:01.874Z,31.84
2023-02-11T10:07:33.876Z,31.71
2023-02-11T10:10:00.546Z,32.28
2023-02-11T10:12:36.582Z,32.17
2023-02-11T10:15:21.763Z,28.63
2023-02-11T10:17:51.609Z,28.82
2023-02-11T10:20:36.553Z,28.97
2023-02-11T10:23:09.341Z,28.55
2023-02-11T10:25:36.027Z,28.57
2023-02-11T10:28:10.542Z,28.27
2023-02-11T10:31:03.624Z,28.65
2023-02-11T10:33:34.889Z,28.45
2023-02-11T10:36:01.534Z,29.06
2023-02-11T10:38:28.165Z,28.68
2023-02-11T10:40:54.893Z,27.55
2023-02-11T10:43:22.898Z,28.55
2023-02-11T10:45:50.408Z,27.50
2023-02-11T10:48:35.834Z,27.62
2023-02-11T10:51:14.011Z,28.04
2023-02-11T10:53:41.264Z,28.11
2023-02-11T10:56:07.966Z,25.83
2023-02-11T10:58:34.630Z,25.70
2023-02-11T11:01:01.357Z,25.70
2023-02-11T11:03:29.291Z,25.55
2023-02-11T11:05:58.711Z,26.50
2023-02-11T11:08:45.386Z,26.88
2023-02-11T11:11:12.918Z,25.19
2023-02-11T11:13:40.453Z,25.00
2023-02-11T11:16:13.405Z,24.99
2023-02-11T11:18:40.467Z,24.40
2023-02-11T11:21:08.011Z,24.60
2023-02-11T11:23:37.881Z,24.14
2023-02-11T11:26:05.761Z,24.99
2023-02-11T11:28:39.971Z,25.06
2023-02-11T11:31:12.429Z,25.23
2023-02-11T11:33:40.807Z,24.47
2023-02-11T11:36:20.693Z,24.74
2023-02-11T11:38:55.807Z,24.30
2023-02-11T11:41:26.480Z,24.61
2023-02-11T11:44:11.904Z,24.60
2023-02-11T11:46:40.506Z,24.09
2023-02-11T11:49:16.259Z,24.88
2023-02-11T11:51:43.041Z,24.46
2023-02-11T11:54:12.368Z,24.19
2023-02-11T11:57:05.403Z,23.92
2023-02-11T11:59:31.968Z,22.89
2023-02-11T12:02:06.266Z,22.04
2023-02-11T12:04:40.845Z,23.03
2023-02-11T12:07:26.151Z,23.51
2023-02-11T12:09:58.815Z,22.86
2023-02-11T12:12:32.365Z,23.83
2023-02-11T12:15:02.082Z,24.31
2023-02-11T12:17:28.746Z,24.17
2023-02-11T12:20:06.200Z,23.22
2023-02-11T12:22:51.620Z,22.04
2023-02-11T12:25:31.840Z,22.10
2023-02-11T12:28:13.765Z,22.31
2023-02-11T12:30:43.538Z,22.59
2023-02-11T12:33:44.916Z,22.28
2023-02-11T12:36:24.273Z,22.64
2023-02-11T12:38:57.044Z,21.06
2023-02-11T12:42:04.336Z,21.34
2023-02-11T12:44:41.006Z,21.05
2023-02-11T12:47:07.686Z,21.16
2023-02-11T12:49:53.016Z,19.52
2023-02-11T12:52:23.086Z,20.09
2023-02-11T12:54:53.860Z,19.97
2023-02-11T12:57:20.709Z,19.29
2023-02-11T12:59:56.825Z,20.41
2023-02-11T13:02:29.438Z,20.00
2023-02-11T13:04:57.606Z,19.04
2023-02-11T13:07:35.210Z,19.16
2023-02-11T13:10:05.912Z,18.57
2023-02-11T13:12:51.036Z,18.58
2023-02-11T13:15:17.769Z,18.57
2023-02-11T13:17:47.525Z,19.51
2023-02-11T13:20:32.813Z,19.89
2023-02-11T13:23:11.857Z,20.46
2023-02-11T13:25:43.653Z,19.31
2023-02-11T13:28:13.421Z,19.59
2023-02-11T13:30:46.996Z,18.64
2023-02-11T13:33:16.791Z,19.01
2023-02-11T13:35:51.242Z,18.88
2023-02-11T13:38:18.930Z,17.62
2023-02-11T13:40:45.500Z,17.75
2023-02-11T13:43:25.122Z,18.19
2023-02-11T13:45:51.959Z,18.82
2023-02-11T13:48:25.659Z,19.42
2023-02-11T13:50:53.762Z,19.77
2023-02-11T13:53:20.478Z,20.16
2023-02-11T13:55:47.882Z,20.40
2023-02-11T13:58:14.524Z,20.96
2023-02-11T14:00:48.729Z,21.33
2023-02-11T14:04:00.572Z,21.66
2023-02-11T14:06:46.389Z,22.21
2023-02-11T14:09:12.911Z,22.74
2023-02-11T14:11:58.359Z,23.43
2023-02-11T14:14:25.951Z,23.35
2023-02-11T14:16:58.981Z,23.63
2023-02-11T14:19:32.273Z,23.55
2023-02-11T14:22:05.414Z,23.56
2023-02-11T14:24:35.213Z,23.65
2023-02-11T14:27:03.998Z,23.77
2023-02-11T14:29:37.064Z,24.00
2023-02-11T14:32:09.853Z,24.45
2023-02-11T14:34:36.405Z,25.06
2023-02-11T14:37:12.541Z,25.75
2023-02-11T14:39:40.419Z,25.71
2023-02-11T14:42:07.668Z,26.06
2023-02-11T14:44:34.433Z,26.29
2023-02-11T14:47:00.989Z,26.29
2023-02-11T14:49:28.914Z,26.35
2023-02-11T14:52:00.759Z,26.76
2023-02-11T14:54:27.654Z,26.61
2023-02-11T14:57:09.966Z,26.55
2023-02-11T14:59:36.608Z,26.79
2023-02-11T15:02:03.272Z,26.75
2023-02-11T15:04:31.147Z,27.21
2023-02-11T15:06:59.541Z,26.96
2023-02-11T15:09:42.413Z,26.76
2023-02-11T15:12:17.487Z,27.35
2023-02-11T15:14:46.315Z,27.96
2023-02-11T15:17:13.140Z,27.67
2023-02-11T15:19:41.196Z,28.04
2023-02-11T15:22:10.924Z,27.73
2023-02-11T15:24:39.497Z,27.70
2023-02-11T15:27:12.704Z,27.75
2023-02-11T15:29:43.512Z,27.89
2023-02-11T15:32:10.191Z,28.04
2023-02-11T15:34:37.418Z,28.34
2023-02-11T15:37:04.281Z,28.43
2023-02-11T15:39:31.646Z,28.41
2023-02-11T15:42:15.749Z,28.65
2023-02-11T15:44:42.396Z,28.40
2023-02-11T15:47:12.350Z,28.87
2023-02-11T15:49:39.968Z,29.40
2023-02-11T15:52:06.491Z,29.60
2023-02-11T15:54:33.370Z,29.55
2023-02-11T15:57:02.022Z,29.55
2023-02-11T15:59:32.871Z,29.46
2023-02-11T16:02:05.321Z,29.72
2023-02-11T16:04:31.959Z,29.67
2023-02-11T16:06:58.627Z,29.63
2023-02-11T16:09:26.705Z,29.96
2023-02-11T16:11:54.343Z,30.09
2023-02-11T16:14:24.088Z,30.07
2023-02-11T16:16:51.774Z,30.19
2023-02-11T16:19:18.793Z,30.11
2023-02-11T16:21:45.544Z,30.26
2023-02-11T16:24:19.025Z,30.42
2023-02-11T16:26:47.254Z,30.51
2023-02-11T16:29:15.065Z,30.40
2023-02-11T16:31:45.757Z,30.46
2023-02-11T16:34:16.588Z,30.38
2023-02-11T16:36:43.134Z,30.18
2023-02-11T16:39:11.209Z,30.37
2023-02-11T16:41:37.792Z,30.36
2023-02-11T16:44:04.424Z,30.15
2023-02-11T16:46:31.578Z,30.19
2023-02-11T16:48:58.269Z,30.15
2023-02-11T16:51:24.884Z,30.32
2023-02-11T16:53:51.550Z,30.24
2023-02-11T16:56:18.293Z,30.37
2023-02-11T16:58:44.932Z,30.21
2023-02-11T17:01:13.917Z,30.70
2023-02-11T17:03:41.086Z,30.89
2023-02-11T17:06:10.816Z,31.05
2023-02-11T17:08:37.448Z,30.92
2023-02-11T17:11:04.154Z,31.26
2023-02-11T17:13:30.726Z,31.45
2023-02-11T17:15:57.443Z,31.60
2023-02-11T17:18:24.047Z,31.61
2023-02-11T17:20:50.598Z,31.69
2023-02-11T17:23:17.326Z,31.81
2023-02-11T17:25:44.288Z,31.82
2023-02-11T17:28:12.264Z,31.85
2023-02-11T17:30:40.013Z,31.81
2023-02-11T17:33:06.675Z,31.79
2023-02-11T17:35:33.247Z,31.84
2023-02-11T17:38:01.676Z,31.81
2023-02-11T17:40:28.268Z,31.74
2023-02-11T17:42:54.824Z,31.90
2023-02-11T17:45:22.483Z,31.98
2023-02-11T17:47:49.595Z,31.90
2023-02-11T17:50:16.279Z,31.96
2023-02-11T17:52:43.069Z,31.86
2023-02-11T17:55:09.748Z,31.97
2023-02-11T17:57:36.411Z,32.04
2023-02-11T18:00:04.528Z,32.02
2023-02-11T18:02:31.090Z,32.05
2023-02-11T18:04:58.919Z,32.06
2023-02-11T18:07:26.158Z,32.18
2023-02-11T18:09:52.810Z,32.19
2023-02-11T18:12:25.379Z,32.38
2023-02-11T18:14:56.792Z,32.43
2023-02-11T18:17:24.354Z,32.45
2023-02-11T18:19:50.954Z,32.55
2023-02-11T18:22:17.843Z,32.42
2023-02-11T18:24:44.395Z,32.54
2023-02-11T18:27:10.946Z,32.48
2023-02-11T18:29:38.093Z,32.63
2023-02-11T18:32:04.819Z,32.58
2023-02-11T18:34:31.938Z,32.82
2023-02-11T18:36:58.771Z,32.83
2023-02-11T18:39:26.546Z,32.84
2023-02-11T18:41:56.953Z,32.83
2023-02-11T18:44:24.886Z,32.91
2023-02-11T18:46:52.054Z,32.83
2023-02-11T18:49:18.900Z,32.80
2023-02-11T18:51:45.767Z,32.90
2023-02-11T18:54:12.537Z,32.77
2023-02-11T18:56:39.224Z,32.80
2023-02-11T18:59:06.679Z,32.77
2023-02-11T19:01:34.605Z,32.85
2023-02-11T19:04:04.548Z,32.80
2023-02-11T19:06:35.202Z,32.73
2023-02-11T19:09:03.457Z,32.72
2023-02-11T19:11:49.474Z,32.68
2023-02-11T19:14:20.624Z,32.64
2023-02-11T19:16:47.524Z,32.82
2023-02-11T19:19:14.446Z,32.68
2023-02-11T19:21:41.998Z,32.88
2023-02-11T19:24:08.764Z,32.79
2023-02-11T19:26:35.757Z,32.87
2023-02-11T19:29:02.495Z,32.95
2023-02-11T19:31:32.244Z,32.86
2023-02-11T19:33:59.475Z,32.97
2023-02-11T19:36:26.163Z,32.90
2023-02-11T19:38:52.832Z,33.00
2023-02-11T19:41:22.394Z,33.02
2023-02-11T19:43:53.178Z,32.91
2023-02-11T19:46:20.926Z,32.99
2023-02-11T19:48:48.242Z,32.98
2023-02-11T19:51:14.808Z,32.97
2023-02-11T19:53:41.596Z,32.93
2023-02-11T19:56:08.845Z,32.86
2023-02-11T19:58:35.875Z,32.98
2023-02-11T20:01:08.695Z,32.83
2023-02-11T20:03:35.347Z,32.95
2023-02-11T20:06:09.160Z,32.85
2023-02-11T20:08:35.850Z,32.86
2023-02-11T20:11:09.217Z,32.93
2023-02-11T20:13:37.746Z,32.80
2023-02-11T20:16:08.189Z,32.93
2023-02-11T20:18:35.118Z,32.96
2023-02-11T20:21:06.169Z,32.91
2023-02-11T20:23:33.097Z,32.94
2023-02-11T20:25:59.872Z,32.96
2023-02-11T20:28:26.882Z,32.98
2023-02-11T20:30:57.362Z,32.89
2023-02-11T20:33:24.368Z,32.88
2023-02-11T20:35:57.933Z,32.93
2023-02-11T20:38:24.709Z,32.91
2023-02-11T20:40:51.329Z,32.84
2023-02-11T20:43:18.139Z,32.77
2023-02-11T20:45:45.100Z,32.90
2023-02-11T20:48:11.954Z,32.83
2023-02-11T20:50:38.621Z,32.80
2023-02-11T20:53:05.416Z,32.86
2023-02-11T20:55:32.290Z,32.90
2023-02-11T20:57:58.900Z,32.85
2023-02-11T21:00:25.786Z,32.79
2023-02-11T21:02:52.869Z,32.86
2023-02-11T21:05:19.558Z,33.00
2023-02-11T21:07:46.524Z,32.86
2023-02-11T21:10:13.195Z,32.83
2023-02-11T21:12:39.741Z,32.83
2023-02-11T21:15:07.994Z,32.93
2023-02-11T21:17:34.622Z,32.91
2023-02-11T21:20:01.213Z,32.94
2023-02-11T21:22:27.993Z,32.91
2023-02-11T21:24:54.616Z,33.00
2023-02-11T21:27:21.160Z,32.93
2023-02-11T21:29:54.228Z,32.95
2023-02-11T21:32:21.402Z,32.95
2023-02-11T21:34:48.127Z,32.93
2023-02-11T21:37:15.134Z,32.94
2023-02-11T21:39:43.369Z,32.90
2023-02-11T21:42:10.024Z,32.91
2023-02-11T21:44:36.832Z,33.10
2023-02-11T21:47:03.576Z,32.91
2023-02-11T21:49:30.281Z,33.03
2023-02-11T21:51:56.898Z,32.92
2023-02-11T21:54:25.901Z,32.94
2023-02-11T21:56:52.889Z,32.91
2023-02-11T21:59:19.565Z,32.86
2023-02-11T22:01:46.372Z,32.93
2023-02-11T22:04:13.058Z,32.91
2023-02-11T22:06:39.726Z,32.96
2023-02-11T22:09:07.180Z,32.92
2023-02-11T22:11:33.727Z,32.97
2023-02-11T22:14:00.430Z,32.90
2023-02-11T22:16:27.446Z,32.90
2023-02-11T22:18:54.129Z,33.09
2023-02-11T22:21:21.681Z,33.10
2023-02-11T22:23:48.522Z,33.11
2023-02-11T22:26:15.937Z,33.20
2023-02-11T22:28:42.980Z,33.19
2023-02-11T22:31:13.476Z,33.17
2023-02-11T22:33:40.193Z,33.34
2023-02-11T22:36:08.061Z,33.45
2023-02-11T22:38:34.741Z,33.36
2023-02-11T22:41:04.727Z,33.37
2023-02-11T22:43:31.607Z,33.43
2023-02-11T22:46:05.045Z,33.56
2023-02-11T22:48:31.975Z,33.48
2023-02-11T22:51:03.722Z,33.52
2023-02-11T22:53:30.453Z,33.44
2023-02-11T22:55:57.701Z,33.63
2023-02-11T22:58:24.770Z,33.65
2023-02-11T23:00:51.325Z,33.67
2023-02-11T23:03:18.033Z,33.60
2023-02-11T23:05:44.617Z,33.53
2023-02-11T23:08:11.283Z,33.70
2023-02-11T23:10:38.156Z,33.69
2023-02-11T23:13:04.734Z,33.76
2023-02-11T23:15:31.286Z,33.78
2023-02-11T23:17:58.020Z,33.67
2023-02-11T23:20:24.567Z,33.65
2023-02-11T23:22:51.482Z,33.69
2023-02-11T23:25:18.203Z,33.81
2023-02-11T23:27:44.780Z,33.72
2023-02-11T23:30:11.830Z,33.66
2023-02-11T23:32:39.165Z,33.83
2023-02-11T23:35:05.896Z,33.81
2023-02-11T23:37:32.537Z,33.94
2023-02-11T23:39:59.210Z,33.98
2023-02-11T23:42:26.021Z,34.02
2023-02-11T23:44:52.693Z,34.01
2023-02-11T23:47:19.882Z,34.17
2023-02-11T23:49:46.439Z,34.13
2023-02-11T23:52:13.083Z,34.22
2023-02-11T23:54:39.696Z,34.15
2023-02-11T23:57:06.419Z,34.22
2023-02-11T23:59:33.032Z,34.21
